Overview Statistics Trail Chart Weather Telemetry Raw packets
 

This is the latest recevied weather packets stored in our database for station/object OE5MMP-13. If no packets are shown the sender has not sent any weather packets the latest 10 day(s).

<< 49 50 51 52 53 54 55 >>
Time Temp. Humidity Pressure Rain* Wind** Luminosity Snow
1787927004 25.56° C 65% 1013.6 hPa 0 mm - 144 W/m² -
1787926404 26.11° C 64% 1013.6 hPa 0 mm - 423 W/m² -
1787925804 26.11° C 62% 1013.2 hPa 0 mm - 258 W/m² -
1787925204 26.67° C 60% 1013.1 hPa 0 mm - 215 W/m² -
1787924604 28.33° C 59% 1013.3 hPa 0 mm - 263 W/m² -
1787924005 28.89° C 57% 1012.8 hPa 0 mm - 689 W/m² -
1787923404 28.33° C 57% 1012.5 hPa 0 mm - 95 W/m² -
1787922804 28.89° C 56% 1012.4 hPa 0 mm - 151 W/m² -
1787922203 30.56° C 55% 1012.5 hPa 0 mm - 303 W/m² -
1787921604 33.33° C 48% 1012.2 hPa 0 mm - 761 W/m² -
1787921004 33.89° C 47% 1011.6 hPa 0 mm - 709 W/m² -
1787920404 33.33° C 47% 1011.6 hPa 0 mm - 693 W/m² -
1787919803 33.89° C 46% 1011.9 hPa 0 mm - 747 W/m² -
1787919203 33.33° C 45% 1011.7 hPa 0 mm - 476 W/m² -
1787918603 33.33° C 46% 1011.8 hPa 0 mm - 773 W/m² -
1787918003 32.22° C 46% 1011.5 hPa 0 mm - 733 W/m² -
1787917403 31.67° C 51% 1011.7 hPa 0 mm - 674 W/m² -
1787916803 31.11° C 52% 1011.6 hPa 0 mm - 743 W/m² -
1787916203 31.11° C 53% 1011.8 hPa 0 mm - 639 W/m² -
1787915603 30.56° C 53% 1011.7 hPa 0 mm - 906 W/m² -
1787915003 30° C 56% 1011.4 hPa 0 mm - 765 W/m² -
1787914403 30° C 55% 1011.3 hPa 0 mm - 711 W/m² -
1787913803 30.56° C 55% 1011.5 hPa 0 mm - 705 W/m² -
1787913203 29.44° C 56% 1011.5 hPa 0 mm - 698 W/m² -
1787912603 28.89° C 57% 1011.4 hPa 0 mm - 693 W/m² -

* Rain latest hour (hover to see other rain measurements)
** Current wind speed in m/s (hover to see current wind gust speed)